Date,TemperatureHighF,TemperatureAvgF,TemperatureLowF,DewpointHighF,DewpointAvgF,DewpointLowF,HumidityHigh,HumidityAvg,HumidityLow,PressureMaxIn,PressureMinIn,WindSpeedMaxMPH,WindSpeedAvgMPH,GustSpeedMaxMPH,PrecipitationSumIn
2013-1-1,20,11,5,9,4,0,81,74,56,30.05,29.97,8,4,0,0.00
2013-1-2,31,19,6,21,11,1,81,73,56,30.01,29.85,10,4,0,0.00
2013-1-3,27,23,13,23,18,8,87,82,76,30.07,29.88,12,6,0,0.00
2013-1-4,33,22,10,23,16,6,91,79,64,30.06,29.92,18,7,0,0.00
2013-1-5,36,28,17,32,25,16,95,88,71,30.03,29.70,15,5,0,0.06
2013-1-6,34,25,15,31,20,13,92,81,71,30.12,29.69,14,7,0,0.00
2013-1-7,40,27,14,28,21,11,93,79,60,30.12,29.85,16,6,0,0.00
2013-1-8,41,33,24,32,27,21,91,80,70,29.93,29.78,11,5,0,0.00
2013-1-9,44,36,26,32,27,22,85,71,48,30.28,29.77,23,7,0,0.00
2013-1-10,45,33,22,38,27,20,97,80,49,30.30,29.64,14,6,0,0.78
2013-1-11,49,46,39,46,44,38,98,94,89,29.63,29.44,13,6,0,0.45
2013-1-12,49,37,24,46,31,20,91,79,67,29.81,29.46,17,7,0,0.00
2013-1-13,24,19,11,22,13,5,92,78,68,30.07,29.70,14,7,0,0.00
2013-1-14,27,14,6,13,7,2,85,74,51,30.27,30.08,9,4,0,0.00
2013-1-15,28,17,6,16,11,4,91,77,56,30.25,29.92,8,2,0,0.00
2013-1-16,34,25,12,29,18,8,89,76,64,29.92,29.62,14,6,0,0.00
2013-1-17,33,24,16,29,13,6,85,64,44,30.21,29.86,12,4,0,0.00
2013-1-18,41,30,15,31,23,11,88,76,65,30.23,29.66,21,7,0,0.00
2013-1-19,48,38,21,35,29,9,77,70,54,29.76,29.50,28,10,0,0.04
2013-1-20,20,14,9,7,3,0,67,61,50,30.13,29.78,20,8,0,0.00
2013-1-21,11,6,1,2,-4,-8,71,61,48,30.08,29.96,18,9,0,0.00
2013-1-22,11,4,-4,-3,-6,-10,75,62,50,30.18,30.08,16,6,0,0.00
2013-1-23,20,14,8,14,5,-3,81,69,59,30.18,29.89,14,7,0,0.00
2013-1-24,20,12,2,9,1,-5,73,63,46,30.44,30.12,11,6,0,0.00
2013-1-25,30,22,16,19,14,6,88,71,56,30.13,29.71,16,7,0,0.00
2013-1-26,26,18,8,15,9,4,82,67,49,30.18,29.97,7,4,0,0.00
2013-1-27,35,29,23,34,24,14,96,81,68,30.13,29.62,14,8,0,0.05
2013-1-28,48,40,35,45,38,34,98,90,68,29.71,29.54,12,5,0,0.18
2013-1-29,61,52,37,58,50,36,98,94,84,29.52,29.18,14,5,0,1.00
2013-1-30,37,30,17,35,27,12,96,91,79,29.41,29.00,16,9,0,0.40
2013-1-31,17,10,1,13,4,-5,87,75,66,29.96,29.41,19,10,0,0.00
2013-2-1,12,4,-4,10,-2,-9,88,74,63,30.14,29.92,16,7,0,0.00
2013-2-2,19,13,6,18,8,1,92,79,63,29.91,29.77,13,4,0,0.00
2013-2-3,22,16,8,17,10,4,91,78,62,29.82,29.72,14,6,0,0.00
2013-2-4,25,17,7,18,13,2,93,83,72,29.77,29.64,12,6,0,0.00
2013-2-5,30,21,4,26,16,0,91,82,73,29.86,29.56,11,4,0,0.00
2013-2-6,36,26,9,30,20,7,93,79,65,30.00,29.84,13,4,0,0.09
2013-2-7,34,32,24,32,30,21,97,93,83,29.86,29.63,11,4,0,0.40
2013-2-8,27,22,19,21,18,17,93,85,76,30.17,29.80,7,4,0,0.00
2013-2-9,30,26,21,26,22,19,94,85,78,30.18,29.83,10,4,0,0.00
2013-2-10,42,36,23,41,34,22,98,92,76,29.83,29.19,27,9,0,0.78
2013-2-11,39,31,26,32,24,20,87,75,71,29.81,29.23,26,14,0,0.03
2013-2-12,32,24,21,22,19,17,94,80,67,29.88,29.66,16,6,0,0.00
2013-2-13,43,32,21,32,27,20,95,82,64,29.66,29.46,12,4,0,0.00
2013-2-14,39,35,31,31,28,23,86,75,60,29.75,29.38,17,7,0,0.00
2013-2-15,31,24,16,25,13,7,78,63,44,29.98,29.76,12,7,0,0.00
2013-2-16,19,13,5,7,4,1,86,67,53,29.98,29.92,14,4,0,0.00
2013-2-17,29,18,2,19,10,-1,90,71,50,30.00,29.71,17,5,0,0.00
2013-2-18,50,36,22,43,30,18,97,78,66,29.70,29.19,20,8,0,0.58
2013-2-19,21,12,7,18,7,2,88,79,70,29.99,29.36,24,13,0,0.00
2013-2-20,23,13,5,12,6,-1,91,73,63,30.17,29.99,11,5,0,0.00
2013-2-21,27,21,10,24,17,7,95,85,79,30.18,29.74,19,9,0,0.00
2013-2-22,32,27,24,31,26,22,99,96,94,29.72,29.54,17,8,0,0.00
2013-2-23,30,24,20,24,19,15,94,82,66,29.73,29.65,15,7,0,0.00
2013-2-24,36,24,11,23,17,9,93,76,55,29.92,29.74,6,2,0,0.01
2013-2-25,43,30,16,28,23,14,94,76,55,29.95,29.73,11,4,0,0.00
2013-2-26,34,32,30,31,28,25,97,85,71,29.74,29.32,27,16,0,0.00
2013-2-27,34,31,28,30,28,26,95,90,82,29.50,29.33,12,7,0,0.01
2013-2-28,36,32,25,30,26,18,93,80,69,29.87,29.50,12,8,0,0.01
2013-3-1,25,24,23,20,18,16,83,78,73,30.01,29.86,12,8,0,0.00
2013-3-2,28,20,10,16,12,7,90,73,58,30.01,29.95,13,5,0,0.00
2013-3-3,34,19,4,17,10,2,91,69,39,29.95,29.84,7,2,0,0.00
2013-3-4,33,24,14,26,18,8,91,77,64,29.90,29.76,16,7,0,0.00
2013-3-5,33,29,25,30,26,22,96,90,74,29.82,29.57,14,9,0,0.00
2013-3-6,34,29,25,27,24,22,92,84,75,30.09,29.82,11,6,0,0.08
2013-3-7,38,29,18,25,22,17,93,76,59,30.20,30.08,7,3,0,0.00
2013-3-8,39,27,11,28,21,9,94,79,63,30.26,30.06,9,4,0,0.00
2013-3-9,40,36,28,34,29,22,88,77,73,30.06,29.57,17,8,0,0.07
2013-3-10,59,28,-40,100,30,-40,99,95,78,29.58,29.34,9,5,0,0.81
2013-3-11,104,13,-28,100,13,-29,99,95,85,29.55,29.32,14,5,0,0.14
2013-3-12,35,29,24,30,24,18,95,80,66,29.80,29.55,17,9,0,0.01
2013-3-13,34,27,20,19,14,9,83,61,37,30.09,29.80,16,7,0,0.00
2013-3-14,34,27,19,29,21,13,95,78,62,30.11,29.83,9,3,0,0.00
2013-3-15,42,33,28,35,30,26,98,90,66,29.85,29.52,20,4,0,0.18
2013-3-16,37,30,26,29,25,20,94,82,62,29.90,29.50,16,8,0,0.00
2013-3-17,35,29,22,24,20,14,78,69,60,30.00,29.74,17,9,0,0.00
2013-3-18,34,29,19,31,25,12,95,84,74,29.73,29.36,22,9,0,0.09
2013-3-19,31,22,14,15,11,7,78,64,45,29.85,29.56,29,13,0,0.00
2013-3-20,24,17,10,12,6,1,80,63,54,29.90,29.80,17,10,0,0.00
2013-3-21,34,21,10,16,10,3,74,63,44,29.84,29.77,10,4,0,0.00
2013-3-22,42,26,13,20,14,9,85,63,37,29.84,29.77,8,2,0,0.00
2013-3-23,41,32,22,25,21,17,81,65,45,29.92,29.80,12,5,0,0.00
2013-3-24,36,32,30,28,25,22,92,76,62,29.83,29.47,21,11,0,0.00
2013-3-25,35,31,27,26,23,20,79,72,64,29.87,29.54,14,7,0,0.00
2013-3-26,44,36,32,26,24,21,76,63,45,30.03,29.87,10,4,0,0.00
2013-3-27,44,36,25,27,23,18,75,60,44,30.10,30.04,10,3,0,0.00
2013-3-28,51,38,24,27,23,19,85,59,34,30.14,30.05,8,2,0,0.00
2013-3-29,56,43,28,31,26,23,85,55,31,30.11,29.99,7,2,0,0.00
2013-3-30,59,44,31,42,33,22,84,65,51,30.02,29.60,14,5,0,0.00
2013-3-31,57,44,34,43,35,23,95,72,41,29.67,29.48,22,8,0,0.00
2013-4-1,40,33,27,21,17,13,66,52,38,29.97,29.68,16,8,0,0.00
2013-4-2,45,32,22,20,16,12,79,53,27,30.09,29.98,14,5,0,0.00
2013-4-3,50,35,20,21,16,11,78,51,25,30.22,30.07,9,3,0,0.00
2013-4-4,60,43,27,37,27,17,72,54,34,30.07,29.73,14,5,0,0.00
2013-4-5,52,41,32,31,27,22,75,58,39,30.01,29.80,15,8,0,0.00
2013-4-6,66,50,35,49,36,22,90,60,39,29.91,29.33,22,10,0,0.21
2013-4-7,66,50,37,49,38,31,88,67,40,29.71,29.36,19,7,0,0.01
2013-4-8,63,51,37,53,45,31,96,79,66,29.73,29.27,26,9,0,0.74
2013-4-9,47,42,38,44,40,37,96,94,89,29.75,29.61,23,12,0,0.12
2013-4-10,39,38,35,38,37,34,98,96,93,29.77,29.59,24,15,0,1.26
2013-4-11,43,40,37,43,39,35,99,97,94,29.62,29.31,28,11,0,0.32
2013-4-12,43,37,35,38,34,30,96,87,75,29.60,29.32,18,8,0,0.05
2013-4-13,44,38,33,30,28,25,81,69,55,29.75,29.60,16,7,0,0.00
2013-4-14,62,47,35,50,37,27,77,67,55,29.78,29.36,21,11,0,0.00
2013-4-15,63,53,41,53,46,37,98,80,49,29.76,29.36,20,6,0,0.31
2013-4-16,57,46,36,39,36,31,92,69,48,30.05,29.74,11,6,0,0.00
2013-4-17,46,42,40,46,38,32,99,86,66,30.07,29.56,22,10,0,3.22
2013-4-18,61,49,38,59,48,32,99,95,76,29.57,29.15,26,9,0,1.64
2013-4-19,41,36,33,32,29,26,81,74,64,29.70,29.22,27,14,0,0.00
2013-4-20,50,38,26,26,22,16,80,54,30,30.18,29.71,12,5,0,0.00
2013-4-21,54,42,32,37,30,23,79,62,46,30.29,30.05,18,9,0,0.00
2013-4-22,68,53,38,44,39,31,78,60,40,30.07,29.78,14,6,0,0.00
2013-4-23,54,44,37,48,41,33,95,89,66,29.80,29.70,14,5,0,0.41
2013-4-24,55,43,35,33,30,27,81,61,37,29.84,29.73,14,6,0,0.01
2013-4-25,54,44,38,36,32,29,87,65,42,30.08,29.80,14,6,0,0.00
2013-4-26,68,53,36,50,40,28,82,63,50,30.09,29.96,17,7,0,0.00
2013-4-27,70,58,40,50,45,40,99,66,39,30.04,29.75,14,4,0,0.00
2013-4-28,72,60,52,55,50,44,86,69,53,29.75,29.56,7,2,0,0.00
2013-4-29,73,62,49,58,54,49,98,76,56,29.67,29.47,17,7,0,0.00
2013-4-30,88,72,60,64,57,55,88,62,35,29.65,29.48,21,8,0,0.00
2013-5-1,87,74,60,59,56,51,82,56,32,29.85,29.66,11,4,0,0.00
2013-5-2,66,50,41,56,44,38,99,80,63,30.01,29.86,20,9,0,1.29
2013-5-3,50,44,39,48,43,38,99,97,95,29.95,29.71,17,11,0,0.31
2013-5-4,71,58,48,57,51,46,96,79,53,29.80,29.71,15,7,0,0.18
2013-5-5,75,61,48,54,48,44,99,67,42,29.82,29.73,18,7,0,0.00
2013-5-6,75,62,47,51,44,39,84,54,30,29.84,29.73,13,4,0,0.00
2013-5-7,84,67,49,50,44,40,80,49,25,29.84,29.70,9,2,0,0.00
2013-5-8,86,68,46,53,48,44,94,53,25,29.82,29.68,6,2,0,0.00
2013-5-9,73,61,47,60,54,47,98,79,60,29.73,29.59,18,4,0,0.54
2013-5-10,51,47,42,47,44,41,99,92,81,29.75,29.57,16,6,0,0.19
2013-5-11,60,49,40,50,38,29,99,71,34,29.83,29.59,16,6,0,0.02
2013-5-12,58,47,35,32,28,25,74,51,29,29.90,29.82,11,5,0,0.00
2013-5-13,70,53,30,41,32,27,92,50,22,29.96,29.72,8,3,0,0.00
2013-5-14,97,74,51,64,53,40,69,51,24,29.71,29.32,8,4,0,0.00
2013-5-15,87,75,61,62,52,46,64,46,24,29.63,29.40,11,4,0,0.00
2013-5-16,89,71,53,54,49,42,80,49,24,29.71,29.60,10,3,0,0.00
2013-5-17,74,63,56,56,49,41,69,60,50,29.79,29.71,16,7,0,0.00
2013-5-18,83,70,53,64,58,46,86,66,48,29.82,29.67,9,4,0,0.00
2013-5-19,92,76,61,68,63,56,90,66,45,29.72,29.51,14,5,0,0.10
2013-5-20,88,76,65,68,62,59,94,65,42,29.54,29.44,15,6,0,0.23
2013-5-21,82,71,61,66,61,55,95,73,50,29.45,29.39,16,6,0,0.02
2013-5-22,76,66,61,64,59,55,96,77,52,29.50,29.37,11,3,0,0.17
2013-5-23,61,53,41,56,47,34,98,83,62,30.07,29.49,14,8,0,0.04
2013-5-24,70,52,34,42,36,32,92,58,32,30.23,30.05,12,4,0,0.00
2013-5-25,59,52,45,44,38,34,74,60,48,30.17,30.05,12,4,0,0.00
2013-5-26,72,56,44,53,44,35,88,67,40,30.07,29.89,13,6,0,0.09
2013-5-27,58,55,51,57,54,47,99,95,84,29.91,29.62,15,8,0,0.04
2013-5-28,77,67,54,71,64,54,99,90,70,29.62,29.43,14,4,0,0.10
2013-5-29,88,75,63,72,66,60,95,76,58,29.70,29.51,9,3,0,0.01
2013-5-30,87,74,63,71,66,60,97,75,59,29.65,29.49,17,6,0,0.41
2013-5-31,77,69,61,66,64,61,99,84,62,29.58,29.44,14,4,0,0.20
2013-6-1,81,69,63,67,63,56,97,82,60,29.47,29.38,8,4,0,0.22
2013-6-2,64,58,47,58,50,45,95,75,63,29.79,29.46,9,4,0,0.00
2013-6-3,77,60,42,52,46,42,99,66,35,29.90,29.76,6,2,0,0.00
2013-6-4,78,63,48,50,46,40,85,56,30,29.95,29.81,13,5,0,0.00
2013-6-5,68,59,53,57,51,45,88,76,60,29.89,29.72,14,6,0,0.20
2013-6-6,65,57,53,56,52,48,94,82,66,29.74,29.66,14,6,0,0.41
2013-6-7,72,61,52,58,49,42,86,66,41,29.75,29.65,13,5,0,0.00
2013-6-8,85,66,44,51,46,42,97,54,27,29.76,29.68,8,2,0,0.00
2013-6-9,82,70,56,62,56,44,90,62,47,29.74,29.52,17,6,0,0.00
2013-6-10,88,74,61,67,63,60,99,71,46,29.64,29.50,8,2,0,0.01
2013-6-11,92,76,59,68,63,57,97,67,44,29.69,29.56,6,2,0,0.00
2013-6-12,95,73,65,75,66,62,95,78,53,29.69,29.37,14,4,0,1.09
2013-6-13,84,71,59,62,58,52,94,67,43,29.79,29.44,15,6,0,0.00
2013-6-14,88,69,53,61,55,49,86,63,36,29.92,29.71,12,5,0,0.00
2013-6-15,92,70,57,72,62,50,94,76,51,29.81,29.56,9,4,0,0.11
2013-6-16,97,79,66,69,61,54,88,58,30,29.71,29.60,14,3,0,0.00
2013-6-17,95,77,60,61,56,53,78,52,28,29.71,29.59,17,4,0,0.00
2013-6-18,74,64,56,59,53,45,82,68,56,29.83,29.68,16,10,0,0.00
2013-6-19,90,69,51,61,51,42,75,55,33,29.91,29.78,9,5,0,0.00
2013-6-20,97,77,55,67,58,45,70,53,33,29.91,29.80,7,3,0,0.00
2013-6-21,79,72,68,68,64,60,94,77,66,29.90,29.58,16,3,0,0.25
2013-6-22,83,73,65,74,68,63,98,84,70,29.88,29.68,18,4,0,1.17
2013-6-23,94,75,66,76,68,64,95,79,57,29.79,29.67,9,3,0,0.11
2013-6-24,90,72,66,72,66,64,97,84,55,29.83,29.59,9,3,0,0.26
2013-6-25,88,74,65,76,69,64,98,86,59,29.74,29.53,9,2,0,1.03
2013-6-26,88,73,66,71,68,65,97,85,54,29.56,29.46,14,3,0,2.59
2013-6-27,95,80,68,73,68,61,97,70,43,29.54,29.44,14,4,0,0.00
2013-6-28,85,74,65,65,61,58,92,67,46,29.48,29.36,12,4,0,0.06
2013-6-29,72,66,62,64,60,55,96,83,60,29.54,29.35,17,4,0,0.92
2013-6-30,81,69,59,64,55,48,83,62,43,29.76,29.54,17,7,0,0.00
2013-7-1,78,68,56,57,51,47,72,56,38,29.84,29.75,21,8,0,0.00
2013-7-2,77,65,56,56,51,44,86,62,34,29.86,29.80,17,6,0,0.00
2013-7-3,73,64,56,63,58,52,95,80,65,29.84,29.78,7,1,0,0.08
2013-7-4,94,74,55,67,61,54,97,68,35,29.86,29.73,8,2,0,0.00
2013-7-5,94,77,60,69,63,56,90,64,40,29.85,29.75,8,2,0,0.00
2013-7-6,96,76,60,69,63,58,94,67,38,29.81,29.74,6,2,0,0.00
2013-7-7,97,80,68,74,69,65,92,70,44,29.76,29.70,8,2,0,0.00
2013-7-8,90,78,70,74,70,66,92,77,60,29.75,29.69,10,4,0,0.40
2013-7-9,92,80,71,74,72,70,95,79,57,29.74,29.60,10,3,0,0.12
2013-7-10,90,79,68,74,65,57,93,65,41,29.76,29.59,9,3,0,0.00
2013-7-11,88,73,59,60,56,52,85,59,34,29.87,29.76,9,3,0,0.00
2013-7-12,95,74,55,57,52,44,88,53,23,29.92,29.79,7,2,0,0.00
2013-7-13,91,75,58,64,58,52,86,58,35,29.93,29.87,8,3,0,0.00
2013-7-14,95,79,63,71,65,58,86,63,41,29.99,29.91,9,4,0,0.00
2013-7-15,103,83,68,75,70,64,86,66,40,30.05,29.98,8,4,0,0.00
2013-7-16,100,85,72,77,73,69,91,69,49,30.07,30.00,8,2,0,0.00
2013-7-17,102,87,73,76,72,69,88,65,45,30.08,29.93,8,3,0,0.00
2013-7-18,99,86,74,76,72,70,89,66,46,29.98,29.71,11,3,0,0.00
2013-7-19,97,84,74,74,70,65,83,65,45,29.72,29.52,18,6,0,0.03
2013-7-20,99,79,66,67,63,60,85,61,32,29.72,29.57,10,3,0,0.00
2013-7-21,92,74,62,70,63,58,86,70,46,29.71,29.61,15,5,0,0.00
2013-7-22,95,78,62,70,65,59,92,67,43,29.64,29.49,9,3,0,0.06
2013-7-23,83,71,59,62,58,52,88,65,41,29.73,29.44,11,4,0,0.05
2013-7-24,79,65,53,54,52,50,92,65,40,29.83,29.73,10,3,0,0.00
2013-7-25,88,70,51,61,56,49,92,65,38,29.86,29.73,6,2,0,0.00
2013-7-26,76,66,58,66,60,55,91,83,68,29.73,29.62,9,3,0,1.27
2013-7-27,68,59,54,55,49,45,93,70,49,29.71,29.63,10,4,0,0.00
2013-7-28,73,61,54,52,48,46,76,64,44,29.77,29.63,14,4,0,0.00
2013-7-29,81,66,52,60,54,48,89,67,46,29.91,29.77,8,3,0,0.00
2013-7-30,74,64,54,63,58,52,93,83,58,29.94,29.82,7,3,0,0.15
2013-7-31,86,70,61,65,62,57,94,79,50,29.82,29.68,6,3,0,0.02
2013-8-1,87,70,59,60,57,54,92,66,34,29.75,29.65,10,2,0,0.00
2013-8-2,94,75,62,68,61,55,87,63,38,29.72,29.57,9,3,0,0.24
2013-8-3,86,72,59,57,54,50,76,54,30,29.86,29.73,11,3,0,0.00
2013-8-4,82,68,56,60,54,48,80,62,40,29.97,29.85,9,4,0,0.00
2013-8-5,77,65,55,63,58,52,89,79,55,29.86,29.62,11,2,0,0.09
2013-8-6,89,74,65,71,67,62,94,82,54,29.64,29.54,8,2,0,0.72
2013-8-7,95,78,66,71,67,60,94,71,43,29.71,29.52,12,3,0,0.00
2013-8-8,80,69,61,62,59,51,92,71,51,29.78,29.70,12,5,0,0.00
2013-8-9,88,72,55,65,58,49,86,62,47,29.83,29.69,9,2,0,0.00
2013-8-10,90,72,57,62,56,53,89,60,34,29.90,29.81,6,1,0,0.00
2013-8-11,86,68,54,67,60,52,94,77,48,29.90,29.76,5,1,0,0.18
2013-8-12,90,74,64,68,63,56,92,71,48,29.78,29.64,8,2,0,0.00
2013-8-13,76,64,54,56,49,45,84,60,38,29.91,29.70,14,5,0,0.00
2013-8-14,84,63,48,56,50,46,94,65,34,29.99,29.87,7,2,0,0.00
2013-8-15,83,65,51,58,52,48,88,66,38,29.94,29.83,7,2,0,0.00
2013-8-16,87,69,52,59,54,50,92,62,33,29.94,29.86,11,2,0,0.00
2013-8-17,90,70,52,59,54,49,93,62,33,30.01,29.88,7,2,0,0.00
2013-8-18,92,71,51,62,56,49,92,62,35,29.98,29.85,7,2,0,0.00
2013-8-19,88,72,55,66,60,52,91,67,46,29.88,29.78,10,2,0,0.00
2013-8-20,92,76,61,69,63,58,92,68,47,29.87,29.77,7,2,0,0.00
2013-8-21,93,78,66,69,65,61,86,66,45,29.83,29.69,10,3,0,0.00
2013-8-22,78,71,64,67,64,61,92,81,63,29.91,29.73,13,2,0,0.31
2013-8-23,85,71,57,62,56,50,94,63,35,29.94,29.86,14,4,0,0.00
2013-8-24,92,73,55,68,60,50,92,67,45,30.02,29.92,8,2,0,0.00
2013-8-25,94,77,64,71,63,55,82,64,46,30.00,29.87,10,3,0,0.00
2013-8-26,97,79,66,73,67,60,85,68,45,29.90,29.74,14,3,0,0.00
2013-8-27,98,83,71,76,70,67,87,68,49,29.74,29.57,13,4,0,0.00
2013-8-28,90,78,68,71,67,64,86,69,53,29.80,29.58,10,5,0,0.00
2013-8-29,95,78,66,71,67,63,94,72,44,29.85,29.73,6,2,0,0.00
2013-8-30,100,78,67,76,69,64,93,75,40,29.73,29.48,20,3,0,0.79
2013-8-31,78,72,66,68,65,63,90,81,68,29.61,29.53,13,5,0,0.00
2013-9-1,90,74,61,72,64,57,95,74,50,29.58,29.47,8,2,0,0.04
2013-9-2,84,68,56,60,56,51,88,68,44,29.74,29.57,11,3,0,0.00
2013-9-3,84,65,49,56,52,47,93,66,37,29.86,29.75,6,1,0,0.00
2013-9-4,92,70,52,63,56,49,94,67,36,29.89,29.78,9,2,0,0.00
2013-9-5,77,68,56,64,56,47,93,68,51,30.00,29.85,17,7,0,0.00
2013-9-6,92,73,55,67,58,47,81,63,45,29.97,29.75,8,2,0,0.00
2013-9-7,94,77,64,68,63,58,83,65,39,29.76,29.61,10,3,0,0.00
2013-9-8,76,70,66,66,63,61,86,79,68,29.78,29.67,20,9,0,0.00
2013-9-9,97,80,66,76,69,62,92,71,51,29.69,29.55,7,3,0,0.00
2013-9-10,99,84,69,68,64,61,74,54,31,29.74,29.61,14,5,0,0.00
2013-9-11,93,77,68,68,64,61,82,64,42,29.81,29.72,6,2,0,0.04
2013-9-12,83,70,58,62,55,46,93,63,38,29.85,29.72,11,3,0,0.00
2013-9-13,73,58,47,50,41,38,78,56,31,29.97,29.85,12,5,0,0.00
2013-9-14,78,58,40,48,44,38,93,63,35,29.97,29.76,7,1,0,0.00
2013-9-15,58,55,52,55,50,42,91,84,62,29.95,29.74,6,2,0,1.17
2013-9-16,67,56,46,53,45,41,90,69,47,30.15,29.96,11,7,0,0.00
2013-9-17,76,59,45,54,48,41,91,70,47,30.10,29.85,10,4,0,0.00
2013-9-18,82,67,58,67,58,50,86,75,52,29.85,29.65,8,3,0,0.05
2013-9-19,96,77,67,70,66,62,92,72,44,29.68,29.48,20,4,0,0.54
2013-9-20,74,66,56,64,57,49,91,74,52,29.59,29.48,13,5,0,0.02
2013-9-21,71,58,45,50,46,40,92,69,46,29.71,29.58,6,3,0,0.00
2013-9-22,76,55,40,48,44,38,94,70,36,29.84,29.71,9,3,0,0.00
2013-9-23,72,56,44,51,46,42,92,71,48,29.89,29.76,9,4,0,0.00
2013-9-24,74,59,46,50,47,42,90,67,42,29.82,29.67,10,5,0,0.00
2013-9-25,76,59,48,53,48,46,93,70,43,29.75,29.67,11,4,0,0.00
2013-9-26,83,62,46,54,48,44,95,67,28,29.84,29.73,7,3,0,0.46
2013-9-27,84,67,50,55,51,46,93,61,36,29.93,29.76,11,3,0,0.00
2013-9-28,84,68,52,64,53,43,89,62,44,29.82,29.59,12,4,0,0.11
2013-9-29,75,60,48,54,46,40,94,65,31,29.84,29.70,8,2,0,0.01
2013-9-30,79,59,42,50,44,39,93,63,29,29.78,29.59,8,2,0,0.00
2013-10-1,86,67,54,62,57,48,94,73,44,29.70,29.59,18,4,0,0.00
2013-10-2,83,66,51,58,49,41,94,59,29,29.87,29.70,13,4,0,0.00
2013-10-3,78,68,58,68,62,46,94,81,62,29.72,29.57,7,2,0,0.20
2013-10-4,73,68,64,68,64,60,93,88,81,29.74,29.61,13,3,0,0.52
2013-10-5,79,68,61,70,64,53,95,88,70,29.67,29.50,12,3,0,0.52
2013-10-6,63,52,43,53,41,36,84,67,43,29.53,29.44,14,4,0,0.00
2013-10-7,73,55,43,46,43,39,87,67,38,29.84,29.51,10,4,0,0.00
2013-10-8,81,60,41,51,45,40,95,63,30,29.95,29.84,10,1,0,0.00
2013-10-9,78,60,45,48,43,36,90,58,24,30.01,29.87,10,2,0,0.00
2013-10-10,80,62,43,53,48,42,94,65,36,29.95,29.78,7,2,0,0.00
2013-10-11,77,64,52,58,52,47,86,65,50,29.82,29.66,11,4,0,0.00
2013-10-12,72,61,46,60,49,37,85,67,39,29.95,29.68,11,4,0,0.11
2013-10-13,68,52,37,41,36,32,91,60,29,30.17,29.95,8,1,0,0.00
2013-10-14,64,49,34,44,39,31,93,69,47,30.19,29.87,13,4,0,0.00
2013-10-15,67,55,47,60,47,39,91,75,64,29.87,29.50,14,6,0,0.19
2013-10-16,52,49,45,45,43,39,88,79,73,29.68,29.58,11,5,0,0.00
2013-10-17,56,47,38,45,42,35,93,84,55,29.68,29.58,12,2,0,0.33
2013-10-18,48,43,35,41,36,32,93,78,63,29.70,29.59,16,3,0,0.00
2013-10-19,56,43,35,38,35,32,90,74,45,29.68,29.51,14,4,0,0.02
2013-10-20,59,46,32,42,38,30,95,74,55,29.63,29.47,10,2,0,0.01
2013-10-21,53,42,30,40,29,22,73,60,48,29.72,29.53,16,6,0,0.00
2013-10-22,42,34,27,32,27,22,92,76,53,29.75,29.66,6,1,0,0.00
2013-10-23,45,35,27,28,26,23,92,70,48,29.78,29.69,10,3,0,0.00
2013-10-24,43,36,27,27,24,20,78,61,44,30.08,29.78,9,4,0,0.00
2013-10-25,52,39,23,30,25,19,85,59,39,30.18,29.77,16,6,0,0.00
2013-10-26,56,45,33,36,29,24,73,54,41,29.84,29.61,17,6,0,0.00
2013-10-27,56,41,26,32,28,22,87,61,38,29.84,29.69,17,3,0,0.00
2013-10-28,49,41,31,38,32,25,82,70,63,30.15,29.81,16,8,0,0.00
2013-10-29,60,46,35,39,35,29,85,68,40,30.14,29.89,10,6,0,0.00
2013-10-30,58,52,47,56,49,39,95,90,72,29.89,29.49,11,4,0,0.50
2013-10-31,62,57,44,60,54,39,95,92,83,29.48,29.00,16,5,0,0.58
2013-11-1,47,44,41,43,40,37,93,84,77,29.50,29.14,19,6,0,0.04
2013-11-2,48,40,33,39,35,31,94,82,57,29.92,29.50,8,2,0,0.02
2013-11-3,52,40,27,37,31,25,95,74,46,30.06,29.92,10,3,0,0.00
2013-11-4,57,49,41,42,37,33,74,65,53,30.00,29.81,12,7,0,0.00
2013-11-5,54,51,49,49,46,41,92,81,71,30.02,29.66,14,5,0,0.03
2013-11-6,56,45,32,54,40,23,93,83,60,29.95,29.51,16,6,0,0.63
2013-11-7,41,33,26,30,26,22,85,75,59,30.01,29.95,11,4,0,0.00
2013-11-8,47,42,29,32,30,25,84,62,52,30.04,29.63,12,6,0,0.00
2013-11-9,58,48,39,40,34,24,69,59,50,29.89,29.58,21,11,0,0.00
2013-11-10,51,41,33,31,28,24,71,60,45,30.10,29.89,16,6,0,0.00
2013-11-11,45,35,21,32,25,13,90,69,57,30.31,29.84,14,6,0,0.07
2013-11-12,32,24,18,18,13,12,77,65,50,30.48,30.32,12,5,0,0.00
2013-11-13,41,28,16,22,16,10,77,61,42,30.37,29.90,20,8,0,0.00
2013-11-14,49,38,29,31,24,17,65,57,47,29.90,29.65,17,7,0,0.00
2013-11-15,54,42,33,35,29,23,81,62,47,29.72,29.65,9,5,0,0.00
2013-11-16,58,49,36,55,46,31,94,89,79,29.67,29.27,22,10,0,0.20
2013-11-17,66,53,40,62,48,33,95,84,72,29.50,28.82,28,12,0,1.46
2013-11-18,41,36,28,32,26,21,77,66,51,30.02,29.51,24,10,0,0.01
2013-11-19,43,31,20,27,23,17,92,71,51,30.13,30.00,8,3,0,0.00
2013-11-20,41,36,29,34,28,24,87,75,59,30.04,29.83,14,6,0,0.08
2013-11-21,47,42,38,40,37,34,87,82,75,29.98,29.85,6,2,0,0.01
2013-11-22,40,33,24,36,25,16,87,73,56,30.25,29.97,11,6,0,0.02
2013-11-23,24,19,12,15,7,1,71,58,48,30.48,30.21,17,7,0,0.00
2013-11-24,27,17,6,9,5,0,77,59,39,30.48,30.10,11,5,0,0.00
2013-11-25,30,26,19,24,19,10,85,74,61,30.09,29.81,18,9,0,0.00
2013-11-26,32,26,14,25,18,3,83,70,54,29.96,29.78,14,6,0,0.00
2013-11-27,28,18,9,13,7,1,71,62,50,30.02,29.95,12,5,0,0.00
2013-11-28,33,24,15,17,13,10,82,63,51,30.27,29.92,9,4,0,0.00
2013-11-29,35,23,9,20,14,5,85,68,48,30.40,30.14,7,3,0,0.00
2013-11-30,50,36,27,33,25,19,81,67,51,30.14,29.78,13,4,0,0.00
2013-12-1,44,34,27,27,26,22,93,73,51,29.88,29.73,8,3,0,0.00
2013-12-2,42,34,26,33,27,23,93,76,55,29.73,29.48,11,5,0,0.01
2013-12-3,45,40,35,44,38,33,96,94,92,29.48,29.41,7,4,0,0.02
2013-12-4,52,46,33,51,45,30,97,95,86,29.48,29.23,18,6,0,0.03
2013-12-5,33,23,17,30,15,8,89,71,62,30.03,29.44,23,11,0,0.00
2013-12-6,20,14,9,8,5,1,75,67,60,30.32,30.02,10,5,0,0.00
2013-12-7,20,10,4,5,1,-1,78,67,50,30.46,30.32,8,4,0,0.00
2013-12-8,23,18,9,20,13,2,91,80,64,30.36,29.68,14,6,0,0.00
2013-12-9,22,12,-6,20,7,-11,91,80,67,29.97,29.68,17,8,0,0.00
2013-12-10,22,10,-8,11,2,-13,81,70,60,30.04,29.73,19,8,0,0.00
2013-12-11,18,10,-3,12,2,-10,86,71,49,30.32,30.01,11,5,0,0.00
2013-12-12,19,7,-8,8,0,-13,80,71,60,30.29,29.94,14,5,0,0.00
2013-12-13,29,22,11,24,15,7,84,76,62,29.95,29.83,14,5,0,0.00
2013-12-14,29,25,19,26,22,16,93,89,82,29.85,29.68,16,8,0,0.00
2013-12-15,20,12,10,17,6,-1,88,74,61,29.88,29.68,17,7,0,0.00
2013-12-16,20,11,3,12,4,-6,86,72,61,29.89,29.75,7,3,0,0.00
2013-12-17,35,24,15,26,18,12,90,78,59,29.85,29.68,21,9,0,0.00
2013-12-18,34,23,12,24,16,8,83,74,53,29.90,29.55,15,6,0,0.00
2013-12-19,35,30,22,31,26,20,94,87,79,29.67,29.55,15,6,0,0.08
2013-12-20,32,31,29,31,29,28,94,94,94,29.57,29.48,14,8,0,0.07